Pagina principale
METAR-TAF:

METAR-TAF

Aeroporti :

Dübendorf, Svizzera

latitudine: 47-23-55N, longitudine: 8-38-53E, altezza: 448 m

Osservazione

Il bollettino è stato emesso 14 ore e 17 minuti fa, alle 16:20 UTC
Vento 6 kt da nord-est, variando fra nord/nord-est e est
Temperature 21°C
Umidità 38%
Pressione 1025 hPa
Visibilità 10 km o più
Poco nuvoloso ad un'altezza di 9200 ft

METAR: LSMD 191620Z AUTO 05006KT 020V090 9999NDV FEW092 21/06 Q1025 RMK

Ora: 08:37 (06:37 UTC)


TAF: mancante

Osservazioni e previsioni meteorologiche di più di 4000 aeroporti (messaggi METAR e TAF).

Le stazioni disponibili sono rappresentate dai dischi gialli e rossi sulla carta.

Puntare il mouse per vedere il nome della stazione.

Clicca sopra per visualizzare le osservazioni e previsioni meteorologiche.

Per cambiare la mappa : fare clic sui pulsanti verdi con una croce nera per ingrandire, il pulsante verde con un trattino per diminuire, o sulla freccia verde per le mappe adiacenti.


METAR-TAF: